Česky Dansk Deutsch English Español Suomi Français Magyar Italiano Nederlands norsk Polski Português svenska Türkçe

 

Het Weer

Berberati (Central African Republic)

08:00, 15 augustus 2016 (GMT)

NWNNE
WE
SWSSE
Home            
Berberati Batouri Bouar Bossembele Betare-Oya Lomie Abong-Mbang Ouesso Meiganga Bangui Souanke Bossangoa Impfondo Yoko Mekambo Ngaoundere Gemena Makoua Younde Ii Yaounde Moundou Bafia Banyo

Om een weerknop op uw website of weblog te plaatsen, copieer onderstaande code en plak die in uw pagina. In het eerste vakje staat HTML-code, in het tweede vakje UBB-code.


Add to Google

Details

Visibility:Greater than 10000 m, 10 km, 32800 ft, 6.2 miles
Clouds:Aufgelockert bewölkt at 900 ft, 274 m
Temperature:23°C, 73°F
Gefühlte Temperatur:21°C, 69°F
Dew-point:22°C, 72°F
Atmospheric pressure:1014 hPa, 760.6 mmHg, 29.94 inHg, 1.001 atm
Relative humidity:94.1 %
METAR:FEFT 150800Z 00000KT 9999 SCT009 23/22 Q1014

Snelkoppelingen

Actuele weersinformatie van de hele wereld. Voeg locaties toe met het plus (+) symbool. Deze snelkoppelingen kunnen worden toegevoegd aan Google.

Lid van de Technetium groep

website free tracking
StatCounter NetStat W3C Validator

21-06-2018 08:44:11
astro.technetium.be money.technetium.be phote.technetium.be tafeltennistafel.technetium.be www.ligfiets.net